sensor_id;sensor_type;location;lat;lon;timestamp;P1;durP1;ratioP1;P2;durP2;ratioP2
77678;SDS011;66835;49.478;10.724;2023-04-22T00:00:01;0.40;;;0.40;;
77678;SDS011;66835;49.478;10.724;2023-04-22T00:02:27;0.30;;;0.30;;
77678;SDS011;66835;49.478;10.724;2023-04-22T00:04:53;0.30;;;0.30;;
77678;SDS011;66835;49.478;10.724;2023-04-22T00:07:18;0.32;;;0.32;;
77678;SDS011;66835;49.478;10.724;2023-04-22T00:09:44;0.40;;;0.40;;
77678;SDS011;66835;49.478;10.724;2023-04-22T00:12:09;0.40;;;0.40;;
77678;SDS011;66835;49.478;10.724;2023-04-22T00:14:38;0.60;;;0.50;;
77678;SDS011;66835;49.478;10.724;2023-04-22T00:17:05;0.40;;;0.40;;
77678;SDS011;66835;49.478;10.724;2023-04-22T00:19:31;0.50;;;0.30;;
77678;SDS011;66835;49.478;10.724;2023-04-22T00:21:56;0.45;;;0.45;;
77678;SDS011;66835;49.478;10.724;2023-04-22T00:24:21;0.40;;;0.40;;
77678;SDS011;66835;49.478;10.724;2023-04-22T00:26:47;0.40;;;0.40;;
77678;SDS011;66835;49.478;10.724;2023-04-22T00:29:12;0.40;;;0.40;;
77678;SDS011;66835;49.478;10.724;2023-04-22T00:31:37;0.40;;;0.40;;
77678;SDS011;66835;49.478;10.724;2023-04-22T00:34:04;0.43;;;0.43;;
77678;SDS011;66835;49.478;10.724;2023-04-22T00:36:29;0.30;;;0.30;;
77678;SDS011;66835;49.478;10.724;2023-04-22T00:38:55;0.40;;;0.40;;
77678;SDS011;66835;49.478;10.724;2023-04-22T00:41:21;0.32;;;0.32;;
77678;SDS011;66835;49.478;10.724;2023-04-22T00:43:46;0.30;;;0.30;;
77678;SDS011;66835;49.478;10.724;2023-04-22T00:46:12;0.40;;;0.40;;
77678;SDS011;66835;49.478;10.724;2023-04-22T00:48:38;0.40;;;0.40;;
77678;SDS011;66835;49.478;10.724;2023-04-22T00:51:05;0.40;;;0.40;;
77678;SDS011;66835;49.478;10.724;2023-04-22T00:53:31;0.38;;;0.38;;
77678;SDS011;66835;49.478;10.724;2023-04-22T00:55:56;0.40;;;0.40;;
77678;SDS011;66835;49.478;10.724;2023-04-22T00:58:22;0.30;;;0.30;;
77678;SDS011;66835;49.478;10.724;2023-04-22T01:00:50;0.30;;;0.30;;
77678;SDS011;66835;49.478;10.724;2023-04-22T01:03:15;0.30;;;0.30;;
77678;SDS011;66835;49.478;10.724;2023-04-22T01:05:41;0.30;;;0.30;;
77678;SDS011;66835;49.478;10.724;2023-04-22T01:08:07;0.40;;;0.40;;
77678;SDS011;66835;49.478;10.724;2023-04-22T01:10:33;0.35;;;0.35;;
77678;SDS011;66835;49.478;10.724;2023-04-22T01:12:58;0.35;;;0.35;;
77678;SDS011;66835;49.478;10.724;2023-04-22T01:15:24;0.30;;;0.30;;
77678;SDS011;66835;49.478;10.724;2023-04-22T01:17:49;0.45;;;0.45;;
77678;SDS011;66835;49.478;10.724;2023-04-22T01:20:15;0.40;;;0.40;;
77678;SDS011;66835;49.478;10.724;2023-04-22T01:22:41;0.30;;;0.30;;
77678;SDS011;66835;49.478;10.724;2023-04-22T01:25:08;0.47;;;0.30;;
77678;SDS011;66835;49.478;10.724;2023-04-22T01:27:35;0.50;;;0.50;;
77678;SDS011;66835;49.478;10.724;2023-04-22T01:30:01;0.30;;;0.30;;
77678;SDS011;66835;49.478;10.724;2023-04-22T01:32:28;0.30;;;0.30;;
77678;SDS011;66835;49.478;10.724;2023-04-22T01:34:54;0.25;;;0.25;;
77678;SDS011;66835;49.478;10.724;2023-04-22T01:37:20;0.30;;;0.30;;
77678;SDS011;66835;49.478;10.724;2023-04-22T01:39:45;0.30;;;0.30;;
77678;SDS011;66835;49.478;10.724;2023-04-22T01:42:13;0.20;;;0.20;;
77678;SDS011;66835;49.478;10.724;2023-04-22T01:44:39;0.20;;;0.20;;
77678;SDS011;66835;49.478;10.724;2023-04-22T01:47:04;0.40;;;0.40;;
77678;SDS011;66835;49.478;10.724;2023-04-22T01:49:30;0.40;;;0.40;;
77678;SDS011;66835;49.478;10.724;2023-04-22T01:51:55;0.30;;;0.30;;
77678;SDS011;66835;49.478;10.724;2023-04-22T01:54:21;0.30;;;0.30;;
77678;SDS011;66835;49.478;10.724;2023-04-22T01:56:50;0.30;;;0.30;;
77678;SDS011;66835;49.478;10.724;2023-04-22T01:59:19;0.35;;;0.35;;
77678;SDS011;66835;49.478;10.724;2023-04-22T02:01:45;0.30;;;0.30;;
77678;SDS011;66835;49.478;10.724;2023-04-22T02:04:10;0.30;;;0.30;;
77678;SDS011;66835;49.478;10.724;2023-04-22T02:06:36;0.40;;;0.40;;
77678;SDS011;66835;49.478;10.724;2023-04-22T02:09:02;0.40;;;0.40;;
77678;SDS011;66835;49.478;10.724;2023-04-22T02:11:27;0.25;;;0.20;;
77678;SDS011;66835;49.478;10.724;2023-04-22T02:13:53;0.40;;;0.40;;
77678;SDS011;66835;49.478;10.724;2023-04-22T02:16:19;0.30;;;0.30;;
77678;SDS011;66835;49.478;10.724;2023-04-22T02:18:45;0.20;;;0.20;;
77678;SDS011;66835;49.478;10.724;2023-04-22T02:21:10;0.25;;;0.25;;
77678;SDS011;66835;49.478;10.724;2023-04-22T02:23:35;0.40;;;0.40;;
77678;SDS011;66835;49.478;10.724;2023-04-22T02:26:01;0.17;;;0.17;;
77678;SDS011;66835;49.478;10.724;2023-04-22T02:28:27;0.30;;;0.30;;
77678;SDS011;66835;49.478;10.724;2023-04-22T02:30:52;0.30;;;0.30;;
77678;SDS011;66835;49.478;10.724;2023-04-22T02:33:19;0.50;;;0.30;;
77678;SDS011;66835;49.478;10.724;2023-04-22T02:35:45;0.30;;;0.30;;
77678;SDS011;66835;49.478;10.724;2023-04-22T02:38:10;0.22;;;0.22;;
77678;SDS011;66835;49.478;10.724;2023-04-22T02:40:36;0.30;;;0.30;;
77678;SDS011;66835;49.478;10.724;2023-04-22T02:43:01;0.20;;;0.20;;
77678;SDS011;66835;49.478;10.724;2023-04-22T02:45:26;0.47;;;0.43;;
77678;SDS011;66835;49.478;10.724;2023-04-22T02:47:52;0.30;;;0.30;;
77678;SDS011;66835;49.478;10.724;2023-04-22T02:50:18;0.40;;;0.40;;
77678;SDS011;66835;49.478;10.724;2023-04-22T02:52:45;0.30;;;0.30;;
77678;SDS011;66835;49.478;10.724;2023-04-22T02:55:10;0.10;;;0.10;;
77678;SDS011;66835;49.478;10.724;2023-04-22T02:57:35;0.30;;;0.30;;
77678;SDS011;66835;49.478;10.724;2023-04-22T03:00:01;0.30;;;0.30;;
77678;SDS011;66835;49.478;10.724;2023-04-22T03:02:26;0.22;;;0.22;;
77678;SDS011;66835;49.478;10.724;2023-04-22T03:04:52;0.30;;;0.30;;
77678;SDS011;66835;49.478;10.724;2023-04-22T03:07:19;0.30;;;0.30;;
77678;SDS011;66835;49.478;10.724;2023-04-22T03:09:45;0.30;;;0.30;;
77678;SDS011;66835;49.478;10.724;2023-04-22T03:12:10;0.40;;;0.40;;
77678;SDS011;66835;49.478;10.724;2023-04-22T03:14:35;0.50;;;0.50;;
77678;SDS011;66835;49.478;10.724;2023-04-22T03:17:01;0.30;;;0.30;;
77678;SDS011;66835;49.478;10.724;2023-04-22T03:19:26;0.40;;;0.40;;
77678;SDS011;66835;49.478;10.724;2023-04-22T03:21:51;0.25;;;0.25;;
77678;SDS011;66835;49.478;10.724;2023-04-22T03:24:18;0.38;;;0.38;;
77678;SDS011;66835;49.478;10.724;2023-04-22T03:26:43;0.30;;;0.30;;
77678;SDS011;66835;49.478;10.724;2023-04-22T03:29:09;0.28;;;0.28;;
77678;SDS011;66835;49.478;10.724;2023-04-22T03:31:34;0.20;;;0.20;;
77678;SDS011;66835;49.478;10.724;2023-04-22T03:34:01;1.67;;;0.47;;
77678;SDS011;66835;49.478;10.724;2023-04-22T03:36:26;0.20;;;0.20;;
77678;SDS011;66835;49.478;10.724;2023-04-22T03:38:52;0.30;;;0.30;;
77678;SDS011;66835;49.478;10.724;2023-04-22T03:41:19;0.20;;;0.20;;
77678;SDS011;66835;49.478;10.724;2023-04-22T03:43:44;0.50;;;0.22;;
77678;SDS011;66835;49.478;10.724;2023-04-22T03:46:09;0.20;;;0.20;;
77678;SDS011;66835;49.478;10.724;2023-04-22T03:48:35;0.30;;;0.30;;
77678;SDS011;66835;49.478;10.724;2023-04-22T03:51:00;0.40;;;0.40;;
77678;SDS011;66835;49.478;10.724;2023-04-22T03:53:26;0.43;;;0.43;;
77678;SDS011;66835;49.478;10.724;2023-04-22T03:55:52;0.60;;;0.50;;
77678;SDS011;66835;49.478;10.724;2023-04-22T03:58:19;0.30;;;0.30;;
77678;SDS011;66835;49.478;10.724;2023-04-22T04:00:44;0.30;;;0.30;;
77678;SDS011;66835;49.478;10.724;2023-04-22T04:03:09;0.35;;;0.35;;
77678;SDS011;66835;49.478;10.724;2023-04-22T04:05:35;0.30;;;0.30;;
77678;SDS011;66835;49.478;10.724;2023-04-22T04:08:00;0.52;;;0.50;;
77678;SDS011;66835;49.478;10.724;2023-04-22T04:10:26;0.35;;;0.35;;
77678;SDS011;66835;49.478;10.724;2023-04-22T04:12:51;0.40;;;0.40;;
77678;SDS011;66835;49.478;10.724;2023-04-22T04:15:18;0.38;;;0.38;;
77678;SDS011;66835;49.478;10.724;2023-04-22T04:17:45;0.40;;;0.40;;
77678;SDS011;66835;49.478;10.724;2023-04-22T04:20:11;0.32;;;0.32;;
77678;SDS011;66835;49.478;10.724;2023-04-22T04:22:36;0.32;;;0.32;;
77678;SDS011;66835;49.478;10.724;2023-04-22T04:25:03;0.40;;;0.30;;
77678;SDS011;66835;49.478;10.724;2023-04-22T04:27:28;0.40;;;0.40;;
77678;SDS011;66835;49.478;10.724;2023-04-22T04:29:54;0.30;;;0.30;;
77678;SDS011;66835;49.478;10.724;2023-04-22T04:32:21;0.43;;;0.38;;
77678;SDS011;66835;49.478;10.724;2023-04-22T04:34:46;0.55;;;0.30;;
77678;SDS011;66835;49.478;10.724;2023-04-22T04:37:12;0.30;;;0.30;;
77678;SDS011;66835;49.478;10.724;2023-04-22T04:39:37;0.40;;;0.35;;
77678;SDS011;66835;49.478;10.724;2023-04-22T04:42:03;0.38;;;0.38;;
77678;SDS011;66835;49.478;10.724;2023-04-22T04:44:29;0.40;;;0.40;;
77678;SDS011;66835;49.478;10.724;2023-04-22T04:46:55;0.43;;;0.35;;
77678;SDS011;66835;49.478;10.724;2023-04-22T04:49:23;0.38;;;0.35;;
77678;SDS011;66835;49.478;10.724;2023-04-22T04:51:48;0.50;;;0.50;;
77678;SDS011;66835;49.478;10.724;2023-04-22T04:54:13;0.57;;;0.43;;
77678;SDS011;66835;49.478;10.724;2023-04-22T04:56:39;0.40;;;0.40;;
77678;SDS011;66835;49.478;10.724;2023-04-22T04:59:04;0.45;;;0.35;;
77678;SDS011;66835;49.478;10.724;2023-04-22T05:01:30;0.32;;;0.32;;
77678;SDS011;66835;49.478;10.724;2023-04-22T05:03:55;0.52;;;0.52;;
77678;SDS011;66835;49.478;10.724;2023-04-22T05:06:22;0.30;;;0.30;;
77678;SDS011;66835;49.478;10.724;2023-04-22T05:08:47;0.38;;;0.32;;
77678;SDS011;66835;49.478;10.724;2023-04-22T05:11:12;0.47;;;0.30;;
77678;SDS011;66835;49.478;10.724;2023-04-22T05:13:38;0.40;;;0.40;;
77678;SDS011;66835;49.478;10.724;2023-04-22T05:16:03;0.40;;;0.40;;
77678;SDS011;66835;49.478;10.724;2023-04-22T05:18:29;0.43;;;0.40;;
77678;SDS011;66835;49.478;10.724;2023-04-22T05:20:55;0.38;;;0.38;;
77678;SDS011;66835;49.478;10.724;2023-04-22T05:23:24;0.43;;;0.43;;
77678;SDS011;66835;49.478;10.724;2023-04-22T05:25:50;0.30;;;0.30;;
77678;SDS011;66835;49.478;10.724;2023-04-22T05:28:15;0.25;;;0.25;;
77678;SDS011;66835;49.478;10.724;2023-04-22T05:30:40;0.30;;;0.30;;
77678;SDS011;66835;49.478;10.724;2023-04-22T05:33:06;0.30;;;0.30;;
77678;SDS011;66835;49.478;10.724;2023-04-22T05:35:32;0.40;;;0.40;;
77678;SDS011;66835;49.478;10.724;2023-04-22T05:37:58;0.40;;;0.40;;
77678;SDS011;66835;49.478;10.724;2023-04-22T05:40:24;0.30;;;0.30;;
77678;SDS011;66835;49.478;10.724;2023-04-22T05:42:50;0.50;;;0.40;;
77678;SDS011;66835;49.478;10.724;2023-04-22T05:45:15;0.70;;;0.40;;
77678;SDS011;66835;49.478;10.724;2023-04-22T05:47:41;0.35;;;0.35;;
77678;SDS011;66835;49.478;10.724;2023-04-22T05:50:07;0.25;;;0.25;;
77678;SDS011;66835;49.478;10.724;2023-04-22T05:52:33;0.40;;;0.40;;
77678;SDS011;66835;49.478;10.724;2023-04-22T05:54:58;0.30;;;0.30;;
77678;SDS011;66835;49.478;10.724;2023-04-22T05:57:25;0.30;;;0.30;;
77678;SDS011;66835;49.478;10.724;2023-04-22T05:59:50;0.43;;;0.20;;
77678;SDS011;66835;49.478;10.724;2023-04-22T06:02:16;0.30;;;0.30;;
77678;SDS011;66835;49.478;10.724;2023-04-22T06:04:41;0.30;;;0.30;;
77678;SDS011;66835;49.478;10.724;2023-04-22T06:07:07;0.40;;;0.40;;
77678;SDS011;66835;49.478;10.724;2023-04-22T06:09:32;0.13;;;0.13;;
77678;SDS011;66835;49.478;10.724;2023-04-22T06:11:58;0.20;;;0.20;;
77678;SDS011;66835;49.478;10.724;2023-04-22T06:14:25;0.20;;;0.20;;
77678;SDS011;66835;49.478;10.724;2023-04-22T06:16:50;0.40;;;0.40;;
77678;SDS011;66835;49.478;10.724;2023-04-22T06:19:17;0.50;;;0.50;;
77678;SDS011;66835;49.478;10.724;2023-04-22T06:21:42;0.63;;;0.40;;
77678;SDS011;66835;49.478;10.724;2023-04-22T06:24:07;0.67;;;0.30;;
77678;SDS011;66835;49.478;10.724;2023-04-22T06:26:34;0.30;;;0.30;;
77678;SDS011;66835;49.478;10.724;2023-04-22T06:28:59;0.82;;;0.40;;
77678;SDS011;66835;49.478;10.724;2023-04-22T06:31:28;0.40;;;0.30;;
77678;SDS011;66835;49.478;10.724;2023-04-22T06:33:53;0.25;;;0.25;;
77678;SDS011;66835;49.478;10.724;2023-04-22T06:36:18;0.25;;;0.25;;
77678;SDS011;66835;49.478;10.724;2023-04-22T06:38:44;0.35;;;0.30;;
77678;SDS011;66835;49.478;10.724;2023-04-22T06:41:09;0.20;;;0.20;;
77678;SDS011;66835;49.478;10.724;2023-04-22T06:43:35;0.30;;;0.30;;
77678;SDS011;66835;49.478;10.724;2023-04-22T06:46:03;0.30;;;0.30;;
77678;SDS011;66835;49.478;10.724;2023-04-22T06:48:30;0.10;;;0.10;;
77678;SDS011;66835;49.478;10.724;2023-04-22T06:50:55;0.40;;;0.40;;
77678;SDS011;66835;49.478;10.724;2023-04-22T06:53:21;0.30;;;0.30;;
77678;SDS011;66835;49.478;10.724;2023-04-22T06:55:46;0.30;;;0.30;;
77678;SDS011;66835;49.478;10.724;2023-04-22T06:58:12;0.20;;;0.20;;
77678;SDS011;66835;49.478;10.724;2023-04-22T07:00:37;0.20;;;0.20;;
77678;SDS011;66835;49.478;10.724;2023-04-22T07:03:02;0.40;;;0.40;;
77678;SDS011;66835;49.478;10.724;2023-04-22T07:05:29;0.67;;;0.60;;
77678;SDS011;66835;49.478;10.724;2023-04-22T07:07:56;0.40;;;0.40;;
77678;SDS011;66835;49.478;10.724;2023-04-22T07:10:21;0.55;;;0.30;;
77678;SDS011;66835;49.478;10.724;2023-04-22T07:12:46;0.30;;;0.30;;
77678;SDS011;66835;49.478;10.724;2023-04-22T07:15:12;0.40;;;0.40;;
77678;SDS011;66835;49.478;10.724;2023-04-22T07:17:37;0.32;;;0.32;;
77678;SDS011;66835;49.478;10.724;2023-04-22T07:20:03;0.30;;;0.30;;
77678;SDS011;66835;49.478;10.724;2023-04-22T07:22:30;0.43;;;0.30;;
77678;SDS011;66835;49.478;10.724;2023-04-22T07:24:55;0.25;;;0.22;;
77678;SDS011;66835;49.478;10.724;2023-04-22T07:27:21;0.30;;;0.30;;
77678;SDS011;66835;49.478;10.724;2023-04-22T07:29:46;0.28;;;0.28;;
77678;SDS011;66835;49.478;10.724;2023-04-22T07:32:12;0.40;;;0.35;;
77678;SDS011;66835;49.478;10.724;2023-04-22T07:34:37;0.20;;;0.20;;
77678;SDS011;66835;49.478;10.724;2023-04-22T07:37:02;0.30;;;0.30;;
77678;SDS011;66835;49.478;10.724;2023-04-22T07:39:30;0.20;;;0.20;;
77678;SDS011;66835;49.478;10.724;2023-04-22T07:41:55;0.22;;;0.20;;
77678;SDS011;66835;49.478;10.724;2023-04-22T07:44:21;0.30;;;0.27;;
77678;SDS011;66835;49.478;10.724;2023-04-22T07:46:46;0.40;;;0.40;;
77678;SDS011;66835;49.478;10.724;2023-04-22T07:49:12;0.40;;;0.30;;
77678;SDS011;66835;49.478;10.724;2023-04-22T07:51:38;0.32;;;0.30;;
77678;SDS011;66835;49.478;10.724;2023-04-22T07:54:03;0.57;;;0.30;;
77678;SDS011;66835;49.478;10.724;2023-04-22T07:56:30;0.22;;;0.22;;
77678;SDS011;66835;49.478;10.724;2023-04-22T07:58:55;0.30;;;0.30;;
77678;SDS011;66835;49.478;10.724;2023-04-22T08:01:21;0.40;;;0.38;;
77678;SDS011;66835;49.478;10.724;2023-04-22T08:03:46;0.13;;;0.13;;
77678;SDS011;66835;49.478;10.724;2023-04-22T08:06:11;0.30;;;0.30;;
77678;SDS011;66835;49.478;10.724;2023-04-22T08:08:37;0.20;;;0.17;;
77678;SDS011;66835;49.478;10.724;2023-04-22T08:11:02;0.82;;;0.32;;
77678;SDS011;66835;49.478;10.724;2023-04-22T08:13:29;0.20;;;0.20;;
77678;SDS011;66835;49.478;10.724;2023-04-22T08:15:54;1.10;;;0.30;;
77678;SDS011;66835;49.478;10.724;2023-04-22T08:18:20;0.38;;;0.35;;
77678;SDS011;66835;49.478;10.724;2023-04-22T08:20:45;0.60;;;0.30;;
77678;SDS011;66835;49.478;10.724;2023-04-22T08:23:11;0.22;;;0.22;;
77678;SDS011;66835;49.478;10.724;2023-04-22T08:25:36;0.20;;;0.20;;
77678;SDS011;66835;49.478;10.724;2023-04-22T08:28:01;0.30;;;0.30;;
77678;SDS011;66835;49.478;10.724;2023-04-22T08:30:28;0.40;;;0.20;;
77678;SDS011;66835;49.478;10.724;2023-04-22T08:32:54;0.30;;;0.30;;
77678;SDS011;66835;49.478;10.724;2023-04-22T08:35:19;0.20;;;0.20;;
77678;SDS011;66835;49.478;10.724;2023-04-22T08:37:45;0.20;;;0.20;;
77678;SDS011;66835;49.478;10.724;2023-04-22T08:40:10;0.45;;;0.40;;
77678;SDS011;66835;49.478;10.724;2023-04-22T08:42:36;0.20;;;0.20;;
77678;SDS011;66835;49.478;10.724;2023-04-22T08:45:02;0.65;;;0.43;;
77678;SDS011;66835;49.478;10.724;2023-04-22T08:47:28;0.38;;;0.38;;
77678;SDS011;66835;49.478;10.724;2023-04-22T08:49:57;0.30;;;0.30;;
77678;SDS011;66835;49.478;10.724;2023-04-22T08:52:23;0.52;;;0.20;;
77678;SDS011;66835;49.478;10.724;2023-04-22T08:54:49;0.30;;;0.30;;
77678;SDS011;66835;49.478;10.724;2023-04-22T08:57:15;0.47;;;0.40;;
77678;SDS011;66835;49.478;10.724;2023-04-22T08:59:41;0.45;;;0.20;;
77678;SDS011;66835;49.478;10.724;2023-04-22T09:02:07;0.20;;;0.20;;
77678;SDS011;66835;49.478;10.724;2023-04-22T09:04:39;0.20;;;0.20;;
77678;SDS011;66835;49.478;10.724;2023-04-22T09:07:05;0.25;;;0.25;;
77678;SDS011;66835;49.478;10.724;2023-04-22T09:09:31;0.30;;;0.20;;
77678;SDS011;66835;49.478;10.724;2023-04-22T09:11:56;0.30;;;0.30;;
77678;SDS011;66835;49.478;10.724;2023-04-22T09:14:22;0.30;;;0.30;;
77678;SDS011;66835;49.478;10.724;2023-04-22T09:16:48;0.30;;;0.30;;
77678;SDS011;66835;49.478;10.724;2023-04-22T09:19:14;0.40;;;0.22;;
77678;SDS011;66835;49.478;10.724;2023-04-22T09:21:41;0.20;;;0.20;;
77678;SDS011;66835;49.478;10.724;2023-04-22T09:24:06;0.30;;;0.25;;
77678;SDS011;66835;49.478;10.724;2023-04-22T09:26:32;0.25;;;0.25;;
77678;SDS011;66835;49.478;10.724;2023-04-22T09:28:58;0.32;;;0.20;;
77678;SDS011;66835;49.478;10.724;2023-04-22T09:31:25;0.45;;;0.30;;
77678;SDS011;66835;49.478;10.724;2023-04-22T09:33:52;0.10;;;0.10;;
77678;SDS011;66835;49.478;10.724;2023-04-22T09:36:20;0.32;;;0.20;;
77678;SDS011;66835;49.478;10.724;2023-04-22T09:38:54;0.10;;;0.10;;
77678;SDS011;66835;49.478;10.724;2023-04-22T09:41:27;0.20;;;0.20;;
77678;SDS011;66835;49.478;10.724;2023-04-22T09:43:53;0.20;;;0.20;;
77678;SDS011;66835;49.478;10.724;2023-04-22T09:46:20;0.10;;;0.10;;
77678;SDS011;66835;49.478;10.724;2023-04-22T09:48:46;0.28;;;0.17;;
77678;SDS011;66835;49.478;10.724;2023-04-22T09:51:13;0.20;;;0.20;;
77678;SDS011;66835;49.478;10.724;2023-04-22T09:53:40;0.60;;;0.35;;
77678;SDS011;66835;49.478;10.724;2023-04-22T09:56:06;0.20;;;0.20;;
77678;SDS011;66835;49.478;10.724;2023-04-22T09:58:32;0.20;;;0.13;;
77678;SDS011;66835;49.478;10.724;2023-04-22T10:01:03;0.20;;;0.20;;
77678;SDS011;66835;49.478;10.724;2023-04-22T10:03:28;0.20;;;0.20;;
77678;SDS011;66835;49.478;10.724;2023-04-22T10:05:53;0.70;;;0.20;;
77678;SDS011;66835;49.478;10.724;2023-04-22T10:08:19;0.20;;;0.20;;
77678;SDS011;66835;49.478;10.724;2023-04-22T10:10:45;0.10;;;0.10;;
77678;SDS011;66835;49.478;10.724;2023-04-22T10:13:11;0.10;;;0.10;;
77678;SDS011;66835;49.478;10.724;2023-04-22T10:15:37;0.20;;;0.20;;
77678;SDS011;66835;49.478;10.724;2023-04-22T10:18:05;0.10;;;0.10;;
77678;SDS011;66835;49.478;10.724;2023-04-22T10:20:32;0.20;;;0.20;;
77678;SDS011;66835;49.478;10.724;2023-04-22T10:23:02;0.10;;;0.10;;
77678;SDS011;66835;49.478;10.724;2023-04-22T10:25:28;0.20;;;0.20;;
77678;SDS011;66835;49.478;10.724;2023-04-22T10:27:54;0.17;;;0.10;;
77678;SDS011;66835;49.478;10.724;2023-04-22T10:30:27;0.20;;;0.20;;
77678;SDS011;66835;49.478;10.724;2023-04-22T10:32:53;0.35;;;0.20;;
77678;SDS011;66835;49.478;10.724;2023-04-22T10:35:19;0.10;;;0.10;;
77678;SDS011;66835;49.478;10.724;2023-04-22T10:37:51;0.10;;;0.10;;
77678;SDS011;66835;49.478;10.724;2023-04-22T10:40:16;0.30;;;0.30;;
77678;SDS011;66835;49.478;10.724;2023-04-22T10:42:45;0.17;;;0.10;;
77678;SDS011;66835;49.478;10.724;2023-04-22T10:45:13;0.17;;;0.17;;
77678;SDS011;66835;49.478;10.724;2023-04-22T10:47:40;0.17;;;0.08;;
77678;SDS011;66835;49.478;10.724;2023-04-22T10:50:16;0.10;;;0.10;;
77678;SDS011;66835;49.478;10.724;2023-04-22T10:52:46;0.20;;;0.15;;
77678;SDS011;66835;49.478;10.724;2023-04-22T10:55:13;0.30;;;0.20;;
77678;SDS011;66835;49.478;10.724;2023-04-22T10:57:39;0.10;;;0.10;;
77678;SDS011;66835;49.478;10.724;2023-04-22T11:03:09;0.10;;;0.10;;
77678;SDS011;66835;49.478;10.724;2023-04-22T11:05:40;0.20;;;0.20;;
77678;SDS011;66835;49.478;10.724;2023-04-22T11:08:07;0.20;;;0.20;;
77678;SDS011;66835;49.478;10.724;2023-04-22T11:10:34;0.10;;;0.10;;
77678;SDS011;66835;49.478;10.724;2023-04-22T11:13:04;0.20;;;0.20;;
77678;SDS011;66835;49.478;10.724;2023-04-22T11:15:31;0.10;;;0.10;;
77678;SDS011;66835;49.478;10.724;2023-04-22T11:17:59;0.38;;;0.20;;
77678;SDS011;66835;49.478;10.724;2023-04-22T11:20:26;0.10;;;0.10;;
77678;SDS011;66835;49.478;10.724;2023-04-22T11:22:53;0.22;;;0.20;;
77678;SDS011;66835;49.478;10.724;2023-04-22T11:25:19;0.13;;;0.13;;
77678;SDS011;66835;49.478;10.724;2023-04-22T11:27:45;0.10;;;0.10;;
77678;SDS011;66835;49.478;10.724;2023-04-22T11:30:12;0.10;;;0.10;;
77678;SDS011;66835;49.478;10.724;2023-04-22T11:32:39;0.10;;;0.10;;
77678;SDS011;66835;49.478;10.724;2023-04-22T11:35:06;0.17;;;0.17;;
77678;SDS011;66835;49.478;10.724;2023-04-22T11:37:39;0.05;;;0.05;;
77678;SDS011;66835;49.478;10.724;2023-04-22T11:40:06;0.10;;;0.10;;
77678;SDS011;66835;49.478;10.724;2023-04-22T11:42:33;0.20;;;0.10;;
77678;SDS011;66835;49.478;10.724;2023-04-22T11:44:59;0.13;;;0.13;;
77678;SDS011;66835;49.478;10.724;2023-04-22T11:47:24;0.10;;;0.10;;
77678;SDS011;66835;49.478;10.724;2023-04-22T11:49:53;0.20;;;0.20;;
77678;SDS011;66835;49.478;10.724;2023-04-22T11:52:19;0.10;;;0.10;;
77678;SDS011;66835;49.478;10.724;2023-04-22T11:54:46;0.10;;;0.10;;
77678;SDS011;66835;49.478;10.724;2023-04-22T11:57:11;0.20;;;0.20;;
77678;SDS011;66835;49.478;10.724;2023-04-22T11:59:39;0.20;;;0.10;;
77678;SDS011;66835;49.478;10.724;2023-04-22T12:02:05;0.15;;;0.15;;
77678;SDS011;66835;49.478;10.724;2023-04-22T12:04:34;0.10;;;0.10;;
77678;SDS011;66835;49.478;10.724;2023-04-22T12:07:00;0.10;;;0.10;;
77678;SDS011;66835;49.478;10.724;2023-04-22T12:09:27;0.17;;;0.10;;
77678;SDS011;66835;49.478;10.724;2023-04-22T12:11:54;0.20;;;0.20;;
77678;SDS011;66835;49.478;10.724;2023-04-22T12:14:20;0.10;;;0.10;;
77678;SDS011;66835;49.478;10.724;2023-04-22T12:16:45;0.00;;;0.00;;
77678;SDS011;66835;49.478;10.724;2023-04-22T12:19:10;0.10;;;0.10;;
77678;SDS011;66835;49.478;10.724;2023-04-22T12:21:36;0.10;;;0.10;;
77678;SDS011;66835;49.478;10.724;2023-04-22T12:24:02;0.40;;;0.17;;
77678;SDS011;66835;49.478;10.724;2023-04-22T12:26:34;0.10;;;0.10;;
77678;SDS011;66835;49.478;10.724;2023-04-22T12:29:03;0.03;;;0.03;;
77678;SDS011;66835;49.478;10.724;2023-04-22T12:31:28;0.10;;;0.10;;
77678;SDS011;66835;49.478;10.724;2023-04-22T12:33:53;0.20;;;0.20;;
77678;SDS011;66835;49.478;10.724;2023-04-22T12:36:19;0.10;;;0.10;;
77678;SDS011;66835;49.478;10.724;2023-04-22T12:38:45;0.10;;;0.10;;
77678;SDS011;66835;49.478;10.724;2023-04-22T12:41:10;0.10;;;0.10;;
77678;SDS011;66835;49.478;10.724;2023-04-22T12:43:36;0.10;;;0.10;;
77678;SDS011;66835;49.478;10.724;2023-04-22T12:46:05;0.20;;;0.20;;
77678;SDS011;66835;49.478;10.724;2023-04-22T12:48:31;0.00;;;0.00;;
77678;SDS011;66835;49.478;10.724;2023-04-22T12:50:57;0.28;;;0.25;;
77678;SDS011;66835;49.478;10.724;2023-04-22T12:53:22;0.00;;;0.00;;
77678;SDS011;66835;49.478;10.724;2023-04-22T12:55:48;0.10;;;0.10;;
77678;SDS011;66835;49.478;10.724;2023-04-22T12:58:13;0.68;;;0.20;;
77678;SDS011;66835;49.478;10.724;2023-04-22T13:00:39;0.15;;;0.10;;
77678;SDS011;66835;49.478;10.724;2023-04-22T13:03:06;0.15;;;0.10;;
77678;SDS011;66835;49.478;10.724;2023-04-22T13:05:31;0.10;;;0.10;;
77678;SDS011;66835;49.478;10.724;2023-04-22T13:07:57;0.13;;;0.05;;
77678;SDS011;66835;49.478;10.724;2023-04-22T13:10:23;0.10;;;0.10;;
77678;SDS011;66835;49.478;10.724;2023-04-22T13:12:50;0.10;;;0.10;;
77678;SDS011;66835;49.478;10.724;2023-04-22T13:15:15;0.10;;;0.10;;
77678;SDS011;66835;49.478;10.724;2023-04-22T13:17:43;0.10;;;0.10;;
77678;SDS011;66835;49.478;10.724;2023-04-22T13:20:10;0.17;;;0.00;;
77678;SDS011;66835;49.478;10.724;2023-04-22T13:22:38;0.10;;;0.10;;
77678;SDS011;66835;49.478;10.724;2023-04-22T13:25:04;0.20;;;0.13;;
77678;SDS011;66835;49.478;10.724;2023-04-22T13:27:30;0.20;;;0.10;;
77678;SDS011;66835;49.478;10.724;2023-04-22T13:29:55;0.10;;;0.10;;
77678;SDS011;66835;49.478;10.724;2023-04-22T13:32:21;0.15;;;0.08;;
77678;SDS011;66835;49.478;10.724;2023-04-22T13:34:46;0.00;;;0.00;;
77678;SDS011;66835;49.478;10.724;2023-04-22T13:37:13;0.10;;;0.10;;
77678;SDS011;66835;49.478;10.724;2023-04-22T13:39:40;0.20;;;0.10;;
77678;SDS011;66835;49.478;10.724;2023-04-22T13:42:05;0.20;;;0.20;;
77678;SDS011;66835;49.478;10.724;2023-04-22T13:44:31;0.13;;;0.13;;
77678;SDS011;66835;49.478;10.724;2023-04-22T13:46:56;0.08;;;0.08;;
77678;SDS011;66835;49.478;10.724;2023-04-22T13:49:22;0.20;;;0.10;;
77678;SDS011;66835;49.478;10.724;2023-04-22T13:51:47;0.10;;;0.10;;
77678;SDS011;66835;49.478;10.724;2023-04-22T13:54:14;0.35;;;0.10;;
77678;SDS011;66835;49.478;10.724;2023-04-22T13:56:40;0.00;;;0.00;;
77678;SDS011;66835;49.478;10.724;2023-04-22T13:59:05;0.10;;;0.10;;
77678;SDS011;66835;49.478;10.724;2023-04-22T14:01:30;0.10;;;0.10;;
77678;SDS011;66835;49.478;10.724;2023-04-22T14:03:56;0.03;;;0.03;;
77678;SDS011;66835;49.478;10.724;2023-04-22T14:06:21;0.10;;;0.10;;
77678;SDS011;66835;49.478;10.724;2023-04-22T14:08:47;0.15;;;0.15;;
77678;SDS011;66835;49.478;10.724;2023-04-22T14:11:13;0.10;;;0.10;;
77678;SDS011;66835;49.478;10.724;2023-04-22T14:13:39;0.10;;;0.10;;
77678;SDS011;66835;49.478;10.724;2023-04-22T14:16:04;0.20;;;0.20;;
77678;SDS011;66835;49.478;10.724;2023-04-22T14:18:32;0.10;;;0.10;;
77678;SDS011;66835;49.478;10.724;2023-04-22T14:21:00;0.00;;;0.00;;
77678;SDS011;66835;49.478;10.724;2023-04-22T14:23:25;0.00;;;0.00;;
77678;SDS011;66835;49.478;10.724;2023-04-22T14:25:51;0.08;;;0.08;;
77678;SDS011;66835;49.478;10.724;2023-04-22T14:28:17;0.00;;;0.00;;